sensor_id;sensor_type;location;lat;lon;timestamp;temperature;humidity
4366;DHT22;2196;47.422;9.656;2023-02-28T00:01:33;-0.20;99.90
4366;DHT22;2196;47.422;9.656;2023-02-28T00:04:00;-0.30;99.90
4366;DHT22;2196;47.422;9.656;2023-02-28T00:06:27;-0.30;99.90
4366;DHT22;2196;47.422;9.656;2023-02-28T00:08:54;-0.30;99.90
4366;DHT22;2196;47.422;9.656;2023-02-28T00:11:23;-0.30;99.90
4366;DHT22;2196;47.422;9.656;2023-02-28T00:13:50;-0.30;99.90
4366;DHT22;2196;47.422;9.656;2023-02-28T00:16:20;-0.30;99.90
4366;DHT22;2196;47.422;9.656;2023-02-28T00:18:47;-0.30;99.90
4366;DHT22;2196;47.422;9.656;2023-02-28T00:21:14;-0.30;99.90
4366;DHT22;2196;47.422;9.656;2023-02-28T00:23:42;-0.40;99.90
4366;DHT22;2196;47.422;9.656;2023-02-28T00:26:09;-0.30;99.90
4366;DHT22;2196;47.422;9.656;2023-02-28T00:28:37;-0.30;99.90
4366;DHT22;2196;47.422;9.656;2023-02-28T00:31:04;-0.40;99.90
4366;DHT22;2196;47.422;9.656;2023-02-28T00:33:31;-0.40;99.90
4366;DHT22;2196;47.422;9.656;2023-02-28T00:36:04;-0.40;99.90
4366;DHT22;2196;47.422;9.656;2023-02-28T00:38:31;-0.50;99.90
4366;DHT22;2196;47.422;9.656;2023-02-28T00:40:58;-0.50;99.90
4366;DHT22;2196;47.422;9.656;2023-02-28T00:43:30;-0.60;99.90
4366;DHT22;2196;47.422;9.656;2023-02-28T00:45:59;-0.60;99.90
4366;DHT22;2196;47.422;9.656;2023-02-28T00:48:26;-0.70;99.90
4366;DHT22;2196;47.422;9.656;2023-02-28T00:50:53;-0.60;99.90
4366;DHT22;2196;47.422;9.656;2023-02-28T00:53:21;-0.70;99.90
4366;DHT22;2196;47.422;9.656;2023-02-28T00:55:48;-0.70;99.90
4366;DHT22;2196;47.422;9.656;2023-02-28T00:58:15;-0.70;99.90
4366;DHT22;2196;47.422;9.656;2023-02-28T01:00:42;-0.80;99.90
4366;DHT22;2196;47.422;9.656;2023-02-28T01:03:16;-0.80;99.90
4366;DHT22;2196;47.422;9.656;2023-02-28T01:05:44;-0.70;99.90
4366;DHT22;2196;47.422;9.656;2023-02-28T01:08:11;-0.80;99.90
4366;DHT22;2196;47.422;9.656;2023-02-28T01:10:39;-0.70;99.90
4366;DHT22;2196;47.422;9.656;2023-02-28T01:13:06;-0.60;99.90
4366;DHT22;2196;47.422;9.656;2023-02-28T01:15:33;-0.60;99.90
4366;DHT22;2196;47.422;9.656;2023-02-28T01:18:00;-0.70;99.90
4366;DHT22;2196;47.422;9.656;2023-02-28T01:20:28;-0.70;99.90
4366;DHT22;2196;47.422;9.656;2023-02-28T01:22:55;-0.70;99.90
4366;DHT22;2196;47.422;9.656;2023-02-28T01:25:22;-0.70;99.90
4366;DHT22;2196;47.422;9.656;2023-02-28T01:27:49;-0.80;99.90
4366;DHT22;2196;47.422;9.656;2023-02-28T01:30:16;-0.90;99.90
4366;DHT22;2196;47.422;9.656;2023-02-28T01:32:46;-1.00;99.90
4366;DHT22;2196;47.422;9.656;2023-02-28T01:35:14;-1.00;99.90
4366;DHT22;2196;47.422;9.656;2023-02-28T01:37:42;-1.10;99.90
4366;DHT22;2196;47.422;9.656;2023-02-28T01:40:11;-1.10;99.90
4366;DHT22;2196;47.422;9.656;2023-02-28T01:42:41;-1.10;99.90
4366;DHT22;2196;47.422;9.656;2023-02-28T01:45:20;-1.00;99.90
4366;DHT22;2196;47.422;9.656;2023-02-28T01:47:50;-1.00;99.90
4366;DHT22;2196;47.422;9.656;2023-02-28T01:50:21;-0.90;99.90
4366;DHT22;2196;47.422;9.656;2023-02-28T01:52:51;-1.00;99.90
4366;DHT22;2196;47.422;9.656;2023-02-28T01:55:20;-1.00;99.90
4366;DHT22;2196;47.422;9.656;2023-02-28T01:57:52;-1.10;99.90
4366;DHT22;2196;47.422;9.656;2023-02-28T02:00:24;-1.20;99.90
4366;DHT22;2196;47.422;9.656;2023-02-28T02:02:55;-1.20;99.90
4366;DHT22;2196;47.422;9.656;2023-02-28T02:05:24;-1.20;99.90
4366;DHT22;2196;47.422;9.656;2023-02-28T02:07:55;-1.20;99.90
4366;DHT22;2196;47.422;9.656;2023-02-28T02:10:29;-1.20;99.90
4366;DHT22;2196;47.422;9.656;2023-02-28T02:16:08;-1.20;99.90
4366;DHT22;2196;47.422;9.656;2023-02-28T02:18:43;-1.20;99.90
4366;DHT22;2196;47.422;9.656;2023-02-28T02:27:17;-1.20;99.90
4366;DHT22;2196;47.422;9.656;2023-02-28T02:35:43;-1.30;99.90
4366;DHT22;2196;47.422;9.656;2023-02-28T02:38:19;-1.20;99.90
4366;DHT22;2196;47.422;9.656;2023-02-28T02:40:57;-1.20;99.90
4366;DHT22;2196;47.422;9.656;2023-02-28T02:43:29;-1.20;99.90
4366;DHT22;2196;47.422;9.656;2023-02-28T02:46:02;-1.20;99.90
4366;DHT22;2196;47.422;9.656;2023-02-28T02:48:33;-1.10;99.90
4366;DHT22;2196;47.422;9.656;2023-02-28T02:51:05;-1.10;99.90
4366;DHT22;2196;47.422;9.656;2023-02-28T02:53:40;-1.10;99.90
4366;DHT22;2196;47.422;9.656;2023-02-28T02:56:09;-1.00;99.90
4366;DHT22;2196;47.422;9.656;2023-02-28T02:58:41;-1.00;99.90
4366;DHT22;2196;47.422;9.656;2023-02-28T03:01:12;-0.90;99.90
4366;DHT22;2196;47.422;9.656;2023-02-28T03:03:41;-0.90;99.90
4366;DHT22;2196;47.422;9.656;2023-02-28T03:06:10;-0.90;99.90
4366;DHT22;2196;47.422;9.656;2023-02-28T03:08:38;-0.80;99.90
4366;DHT22;2196;47.422;9.656;2023-02-28T03:11:07;-0.80;99.90
4366;DHT22;2196;47.422;9.656;2023-02-28T03:14:10;-0.80;99.90
4366;DHT22;2196;47.422;9.656;2023-02-28T03:20:07;-0.90;99.90
4366;DHT22;2196;47.422;9.656;2023-02-28T03:23:01;-0.90;99.90
4366;DHT22;2196;47.422;9.656;2023-02-28T03:25:37;-1.00;99.90
4366;DHT22;2196;47.422;9.656;2023-02-28T03:28:12;-1.00;99.90
4366;DHT22;2196;47.422;9.656;2023-02-28T03:30:47;-1.00;99.90
4366;DHT22;2196;47.422;9.656;2023-02-28T03:33:21;-1.10;99.90
4366;DHT22;2196;47.422;9.656;2023-02-28T03:38:22;-1.10;99.90
4366;DHT22;2196;47.422;9.656;2023-02-28T03:40:57;-1.10;99.90
4366;DHT22;2196;47.422;9.656;2023-02-28T03:43:29;-1.00;99.90
4366;DHT22;2196;47.422;9.656;2023-02-28T03:45:59;-0.90;99.90
4366;DHT22;2196;47.422;9.656;2023-02-28T03:48:32;-0.80;99.90
4366;DHT22;2196;47.422;9.656;2023-02-28T03:51:05;-0.80;99.90
4366;DHT22;2196;47.422;9.656;2023-02-28T03:53:37;-0.80;99.90
4366;DHT22;2196;47.422;9.656;2023-02-28T03:56:09;-0.90;99.90
4366;DHT22;2196;47.422;9.656;2023-02-28T03:58:44;-0.90;99.90
4366;DHT22;2196;47.422;9.656;2023-02-28T04:01:18;-0.90;99.90
4366;DHT22;2196;47.422;9.656;2023-02-28T04:03:45;-0.90;99.90
4366;DHT22;2196;47.422;9.656;2023-02-28T04:06:15;-0.90;99.90
4366;DHT22;2196;47.422;9.656;2023-02-28T04:08:44;-0.90;99.90
4366;DHT22;2196;47.422;9.656;2023-02-28T04:11:22;-0.80;99.90
4366;DHT22;2196;47.422;9.656;2023-02-28T04:13:49;-0.70;99.90
4366;DHT22;2196;47.422;9.656;2023-02-28T04:16:16;-0.60;99.90
4366;DHT22;2196;47.422;9.656;2023-02-28T04:18:43;-0.70;99.90
4366;DHT22;2196;47.422;9.656;2023-02-28T04:21:11;-0.80;99.90
4366;DHT22;2196;47.422;9.656;2023-02-28T04:23:38;-0.90;99.90
4366;DHT22;2196;47.422;9.656;2023-02-28T04:26:07;-0.90;99.90
4366;DHT22;2196;47.422;9.656;2023-02-28T04:28:34;-0.90;99.90
4366;DHT22;2196;47.422;9.656;2023-02-28T04:31:03;-1.00;99.90
4366;DHT22;2196;47.422;9.656;2023-02-28T04:33:31;-0.90;99.90
4366;DHT22;2196;47.422;9.656;2023-02-28T04:36:00;-0.90;99.90
4366;DHT22;2196;47.422;9.656;2023-02-28T04:38:28;-0.80;99.90
4366;DHT22;2196;47.422;9.656;2023-02-28T04:40:57;-0.80;99.90
4366;DHT22;2196;47.422;9.656;2023-02-28T04:43:26;-0.90;99.90
4366;DHT22;2196;47.422;9.656;2023-02-28T04:45:53;-0.80;99.90
4366;DHT22;2196;47.422;9.656;2023-02-28T04:48:22;-0.90;99.90
4366;DHT22;2196;47.422;9.656;2023-02-28T04:50:50;-0.80;99.90
4366;DHT22;2196;47.422;9.656;2023-02-28T04:53:17;-0.90;99.90
4366;DHT22;2196;47.422;9.656;2023-02-28T04:55:44;-0.80;99.90
4366;DHT22;2196;47.422;9.656;2023-02-28T04:58:11;-0.80;99.90
4366;DHT22;2196;47.422;9.656;2023-02-28T05:00:39;-0.80;99.90
4366;DHT22;2196;47.422;9.656;2023-02-28T05:03:06;-0.80;99.90
4366;DHT22;2196;47.422;9.656;2023-02-28T05:05:33;-0.90;99.90
4366;DHT22;2196;47.422;9.656;2023-02-28T05:08:02;-0.90;99.90
4366;DHT22;2196;47.422;9.656;2023-02-28T05:10:30;-0.90;99.90
4366;DHT22;2196;47.422;9.656;2023-02-28T05:12:57;-0.90;99.90
4366;DHT22;2196;47.422;9.656;2023-02-28T05:15:24;-1.00;99.90
4366;DHT22;2196;47.422;9.656;2023-02-28T05:17:53;-0.90;99.90
4366;DHT22;2196;47.422;9.656;2023-02-28T05:20:20;-0.90;99.90
4366;DHT22;2196;47.422;9.656;2023-02-28T05:22:47;-1.00;99.90
4366;DHT22;2196;47.422;9.656;2023-02-28T05:25:17;-1.10;99.90
4366;DHT22;2196;47.422;9.656;2023-02-28T05:27:46;-1.10;99.90
4366;DHT22;2196;47.422;9.656;2023-02-28T05:30:13;-1.10;99.90
4366;DHT22;2196;47.422;9.656;2023-02-28T05:32:49;-1.10;99.90
4366;DHT22;2196;47.422;9.656;2023-02-28T05:35:17;-1.10;99.90
4366;DHT22;2196;47.422;9.656;2023-02-28T05:37:46;-1.10;99.90
4366;DHT22;2196;47.422;9.656;2023-02-28T05:40:13;-1.20;99.90
4366;DHT22;2196;47.422;9.656;2023-02-28T05:42:41;-1.20;99.90
4366;DHT22;2196;47.422;9.656;2023-02-28T05:45:09;-1.20;99.90
4366;DHT22;2196;47.422;9.656;2023-02-28T05:47:36;-1.10;99.90
4366;DHT22;2196;47.422;9.656;2023-02-28T05:50:05;-1.10;99.90
4366;DHT22;2196;47.422;9.656;2023-02-28T05:52:33;-1.10;99.90
4366;DHT22;2196;47.422;9.656;2023-02-28T05:55:00;-1.10;99.90
4366;DHT22;2196;47.422;9.656;2023-02-28T05:57:27;-1.20;99.90
4366;DHT22;2196;47.422;9.656;2023-02-28T05:59:54;-1.10;99.90
4366;DHT22;2196;47.422;9.656;2023-02-28T06:02:21;-1.20;99.90
4366;DHT22;2196;47.422;9.656;2023-02-28T06:04:48;-1.20;99.90
4366;DHT22;2196;47.422;9.656;2023-02-28T06:07:16;-1.20;99.90
4366;DHT22;2196;47.422;9.656;2023-02-28T06:09:44;-1.10;99.90
4366;DHT22;2196;47.422;9.656;2023-02-28T06:12:11;-1.10;99.90
4366;DHT22;2196;47.422;9.656;2023-02-28T06:14:38;-1.10;99.90
4366;DHT22;2196;47.422;9.656;2023-02-28T06:17:06;-1.10;99.90
4366;DHT22;2196;47.422;9.656;2023-02-28T06:19:33;-1.10;99.90
4366;DHT22;2196;47.422;9.656;2023-02-28T06:22:00;-1.00;99.90
4366;DHT22;2196;47.422;9.656;2023-02-28T06:24:27;-0.90;99.90
4366;DHT22;2196;47.422;9.656;2023-02-28T06:26:58;-0.90;99.90
4366;DHT22;2196;47.422;9.656;2023-02-28T06:29:30;-0.90;99.90
4366;DHT22;2196;47.422;9.656;2023-02-28T06:31:58;-0.90;99.90
4366;DHT22;2196;47.422;9.656;2023-02-28T06:34:25;-0.80;99.90
4366;DHT22;2196;47.422;9.656;2023-02-28T06:36:52;-0.90;99.90
4366;DHT22;2196;47.422;9.656;2023-02-28T06:39:19;-0.80;99.90
4366;DHT22;2196;47.422;9.656;2023-02-28T06:41:46;-0.80;99.90
4366;DHT22;2196;47.422;9.656;2023-02-28T06:44:16;-0.70;99.90
4366;DHT22;2196;47.422;9.656;2023-02-28T06:46:44;-0.60;99.90
4366;DHT22;2196;47.422;9.656;2023-02-28T06:49:11;-0.50;99.90
4366;DHT22;2196;47.422;9.656;2023-02-28T06:51:40;-0.40;99.90
4366;DHT22;2196;47.422;9.656;2023-02-28T06:54:10;-0.40;99.90
4366;DHT22;2196;47.422;9.656;2023-02-28T06:56:38;-0.20;99.90
4366;DHT22;2196;47.422;9.656;2023-02-28T06:59:05;-0.20;99.90
4366;DHT22;2196;47.422;9.656;2023-02-28T07:01:33;-0.20;99.90
4366;DHT22;2196;47.422;9.656;2023-02-28T07:04:00;-0.20;99.90
4366;DHT22;2196;47.422;9.656;2023-02-28T07:06:27;-0.20;99.90
4366;DHT22;2196;47.422;9.656;2023-02-28T07:08:54;-0.20;99.90
4366;DHT22;2196;47.422;9.656;2023-02-28T07:11:23;-0.20;99.90
4366;DHT22;2196;47.422;9.656;2023-02-28T07:13:51;-0.20;99.90
4366;DHT22;2196;47.422;9.656;2023-02-28T07:16:18;-0.20;99.90
4366;DHT22;2196;47.422;9.656;2023-02-28T07:18:46;-0.20;99.90
4366;DHT22;2196;47.422;9.656;2023-02-28T07:21:13;-0.20;99.90
4366;DHT22;2196;47.422;9.656;2023-02-28T07:23:40;-0.20;99.90
4366;DHT22;2196;47.422;9.656;2023-02-28T07:26:11;-0.10;99.90
4366;DHT22;2196;47.422;9.656;2023-02-28T07:28:40;0.00;99.90
4366;DHT22;2196;47.422;9.656;2023-02-28T07:31:09;-0.10;99.90
4366;DHT22;2196;47.422;9.656;2023-02-28T07:33:37;-0.10;99.90
4366;DHT22;2196;47.422;9.656;2023-02-28T07:36:07;-0.10;99.90
4366;DHT22;2196;47.422;9.656;2023-02-28T07:38:36;-0.10;99.90
4366;DHT22;2196;47.422;9.656;2023-02-28T07:41:03;0.00;99.90
4366;DHT22;2196;47.422;9.656;2023-02-28T07:43:30;0.00;99.90
4366;DHT22;2196;47.422;9.656;2023-02-28T07:46:01;0.10;99.90
4366;DHT22;2196;47.422;9.656;2023-02-28T07:48:28;0.20;99.90
4366;DHT22;2196;47.422;9.656;2023-02-28T07:50:55;0.20;99.90
4366;DHT22;2196;47.422;9.656;2023-02-28T07:53:24;0.20;99.90
4366;DHT22;2196;47.422;9.656;2023-02-28T07:55:51;0.30;99.90
4366;DHT22;2196;47.422;9.656;2023-02-28T07:58:20;0.30;99.90
4366;DHT22;2196;47.422;9.656;2023-02-28T08:00:47;0.30;99.90
4366;DHT22;2196;47.422;9.656;2023-02-28T08:03:17;0.30;99.90
4366;DHT22;2196;47.422;9.656;2023-02-28T08:05:44;0.30;99.90
4366;DHT22;2196;47.422;9.656;2023-02-28T08:08:12;0.40;99.90
4366;DHT22;2196;47.422;9.656;2023-02-28T08:10:40;0.40;99.90
4366;DHT22;2196;47.422;9.656;2023-02-28T08:13:07;0.50;99.90
4366;DHT22;2196;47.422;9.656;2023-02-28T08:15:34;0.50;99.90
4366;DHT22;2196;47.422;9.656;2023-02-28T08:18:02;0.60;99.90
4366;DHT22;2196;47.422;9.656;2023-02-28T08:20:29;0.70;99.90
4366;DHT22;2196;47.422;9.656;2023-02-28T08:22:56;0.70;99.90
4366;DHT22;2196;47.422;9.656;2023-02-28T08:25:23;0.80;99.90
4366;DHT22;2196;47.422;9.656;2023-02-28T08:27:52;0.80;99.90
4366;DHT22;2196;47.422;9.656;2023-02-28T08:30:19;0.90;99.90
4366;DHT22;2196;47.422;9.656;2023-02-28T08:32:46;0.90;99.90
4366;DHT22;2196;47.422;9.656;2023-02-28T08:35:13;1.00;99.90
4366;DHT22;2196;47.422;9.656;2023-02-28T08:37:44;1.10;99.90
4366;DHT22;2196;47.422;9.656;2023-02-28T08:40:14;1.20;99.90
4366;DHT22;2196;47.422;9.656;2023-02-28T08:42:43;1.20;99.90
4366;DHT22;2196;47.422;9.656;2023-02-28T08:45:12;1.30;99.90
4366;DHT22;2196;47.422;9.656;2023-02-28T08:47:40;1.30;99.90
4366;DHT22;2196;47.422;9.656;2023-02-28T08:50:10;1.40;99.90
4366;DHT22;2196;47.422;9.656;2023-02-28T08:52:42;1.50;99.90
4366;DHT22;2196;47.422;9.656;2023-02-28T08:55:10;1.60;99.90
4366;DHT22;2196;47.422;9.656;2023-02-28T08:57:37;1.70;99.90
4366;DHT22;2196;47.422;9.656;2023-02-28T09:00:05;1.90;99.90
4366;DHT22;2196;47.422;9.656;2023-02-28T09:02:34;2.00;99.90
4366;DHT22;2196;47.422;9.656;2023-02-28T09:05:02;2.00;99.90
4366;DHT22;2196;47.422;9.656;2023-02-28T09:07:30;2.20;99.90
4366;DHT22;2196;47.422;9.656;2023-02-28T09:09:57;2.10;99.90
4366;DHT22;2196;47.422;9.656;2023-02-28T09:12:25;2.20;99.90
4366;DHT22;2196;47.422;9.656;2023-02-28T09:14:53;2.40;99.90
4366;DHT22;2196;47.422;9.656;2023-02-28T09:17:20;2.40;99.90
4366;DHT22;2196;47.422;9.656;2023-02-28T09:19:49;2.60;99.90
4366;DHT22;2196;47.422;9.656;2023-02-28T09:22:16;2.80;99.90
4366;DHT22;2196;47.422;9.656;2023-02-28T09:24:43;3.00;99.90
4366;DHT22;2196;47.422;9.656;2023-02-28T09:27:10;3.10;99.90
4366;DHT22;2196;47.422;9.656;2023-02-28T09:29:37;2.90;99.90
4366;DHT22;2196;47.422;9.656;2023-02-28T09:32:04;3.20;99.90
4366;DHT22;2196;47.422;9.656;2023-02-28T09:34:32;3.20;99.90
4366;DHT22;2196;47.422;9.656;2023-02-28T09:37:00;3.10;99.90
4366;DHT22;2196;47.422;9.656;2023-02-28T09:39:27;3.60;99.90
4366;DHT22;2196;47.422;9.656;2023-02-28T09:41:55;3.80;99.90
4366;DHT22;2196;47.422;9.656;2023-02-28T09:44:29;3.70;99.90
4366;DHT22;2196;47.422;9.656;2023-02-28T09:47:00;4.20;99.90
4366;DHT22;2196;47.422;9.656;2023-02-28T09:49:34;4.70;99.90
4366;DHT22;2196;47.422;9.656;2023-02-28T09:52:05;5.30;99.90
4366;DHT22;2196;47.422;9.656;2023-02-28T09:54:35;6.10;99.90
4366;DHT22;2196;47.422;9.656;2023-02-28T09:57:07;6.10;99.90
4366;DHT22;2196;47.422;9.656;2023-02-28T09:59:48;6.50;99.90
4366;DHT22;2196;47.422;9.656;2023-02-28T10:02:46;6.70;99.90
4366;DHT22;2196;47.422;9.656;2023-02-28T10:05:16;7.60;99.90
4366;DHT22;2196;47.422;9.656;2023-02-28T10:08:01;8.40;99.90
4366;DHT22;2196;47.422;9.656;2023-02-28T10:10:36;8.50;99.90
4366;DHT22;2196;47.422;9.656;2023-02-28T10:13:11;8.40;99.90
4366;DHT22;2196;47.422;9.656;2023-02-28T10:15:40;8.70;99.90
4366;DHT22;2196;47.422;9.656;2023-02-28T10:18:12;8.90;99.90
4366;DHT22;2196;47.422;9.656;2023-02-28T10:20:43;8.40;99.90
4366;DHT22;2196;47.422;9.656;2023-02-28T10:23:16;8.20;99.90
4366;DHT22;2196;47.422;9.656;2023-02-28T10:25:47;8.30;99.90
4366;DHT22;2196;47.422;9.656;2023-02-28T10:28:17;8.00;99.90
4366;DHT22;2196;47.422;9.656;2023-02-28T10:30:47;7.50;99.90
4366;DHT22;2196;47.422;9.656;2023-02-28T10:33:25;6.40;99.90
4366;DHT22;2196;47.422;9.656;2023-02-28T10:35:54;6.50;99.90
4366;DHT22;2196;47.422;9.656;2023-02-28T10:38:25;6.50;99.90
4366;DHT22;2196;47.422;9.656;2023-02-28T10:41:04;7.20;99.90
4366;DHT22;2196;47.422;9.656;2023-02-28T10:43:31;8.00;99.90
4366;DHT22;2196;47.422;9.656;2023-02-28T10:46:01;8.40;99.90
4366;DHT22;2196;47.422;9.656;2023-02-28T10:48:34;8.40;99.90
4366;DHT22;2196;47.422;9.656;2023-02-28T10:51:03;7.90;99.90
4366;DHT22;2196;47.422;9.656;2023-02-28T10:53:35;7.30;99.90
4366;DHT22;2196;47.422;9.656;2023-02-28T10:56:04;6.50;99.90
4366;DHT22;2196;47.422;9.656;2023-02-28T10:58:46;6.20;99.90
4366;DHT22;2196;47.422;9.656;2023-02-28T11:01:15;6.20;99.90
4366;DHT22;2196;47.422;9.656;2023-02-28T11:03:43;5.70;99.90
4366;DHT22;2196;47.422;9.656;2023-02-28T11:06:16;5.60;99.90
4366;DHT22;2196;47.422;9.656;2023-02-28T11:08:49;5.60;99.90
4366;DHT22;2196;47.422;9.656;2023-02-28T11:11:17;5.80;99.90
4366;DHT22;2196;47.422;9.656;2023-02-28T11:13:46;5.70;99.90
4366;DHT22;2196;47.422;9.656;2023-02-28T11:16:15;5.50;99.90
4366;DHT22;2196;47.422;9.656;2023-02-28T11:18:48;5.00;99.90
4366;DHT22;2196;47.422;9.656;2023-02-28T11:21:21;5.10;99.90
4366;DHT22;2196;47.422;9.656;2023-02-28T11:23:52;4.60;99.90
4366;DHT22;2196;47.422;9.656;2023-02-28T11:26:39;4.60;99.90
4366;DHT22;2196;47.422;9.656;2023-02-28T11:29:12;4.40;99.90
4366;DHT22;2196;47.422;9.656;2023-02-28T11:31:39;4.50;99.90
4366;DHT22;2196;47.422;9.656;2023-02-28T11:34:23;4.70;99.90
4366;DHT22;2196;47.422;9.656;2023-02-28T11:36:51;4.80;99.90
4366;DHT22;2196;47.422;9.656;2023-02-28T11:39:20;4.20;99.90
4366;DHT22;2196;47.422;9.656;2023-02-28T11:42:02;4.10;99.90
4366;DHT22;2196;47.422;9.656;2023-02-28T11:44:45;4.20;99.90
4366;DHT22;2196;47.422;9.656;2023-02-28T11:47:17;4.30;99.90
4366;DHT22;2196;47.422;9.656;2023-02-28T11:49:49;4.50;99.90
4366;DHT22;2196;47.422;9.656;2023-02-28T11:52:24;4.40;99.90
4366;DHT22;2196;47.422;9.656;2023-02-28T11:55:12;4.20;99.90
4366;DHT22;2196;47.422;9.656;2023-02-28T11:57:56;4.40;99.90
4366;DHT22;2196;47.422;9.656;2023-02-28T12:00:37;4.40;99.90
4366;DHT22;2196;47.422;9.656;2023-02-28T12:03:16;4.50;99.90
4366;DHT22;2196;47.422;9.656;2023-02-28T12:05:58;4.40;99.90
4366;DHT22;2196;47.422;9.656;2023-02-28T12:08:42;4.10;99.90
4366;DHT22;2196;47.422;9.656;2023-02-28T12:11:19;4.30;99.90
4366;DHT22;2196;47.422;9.656;2023-02-28T12:14:03;4.30;99.90
4366;DHT22;2196;47.422;9.656;2023-02-28T12:16:45;4.20;99.90
4366;DHT22;2196;47.422;9.656;2023-02-28T12:19:19;4.30;99.90
4366;DHT22;2196;47.422;9.656;2023-02-28T12:27:51;4.10;99.90
4366;DHT22;2196;47.422;9.656;2023-02-28T12:30:22;4.30;99.90
4366;DHT22;2196;47.422;9.656;2023-02-28T12:32:54;4.40;99.90
4366;DHT22;2196;47.422;9.656;2023-02-28T12:35:25;4.60;99.90
4366;DHT22;2196;47.422;9.656;2023-02-28T12:37:56;4.60;99.90
4366;DHT22;2196;47.422;9.656;2023-02-28T12:40:27;4.40;99.90
4366;DHT22;2196;47.422;9.656;2023-02-28T12:42:59;4.60;99.90
4366;DHT22;2196;47.422;9.656;2023-02-28T12:45:36;4.70;99.90
4366;DHT22;2196;47.422;9.656;2023-02-28T12:48:08;5.00;99.90
4366;DHT22;2196;47.422;9.656;2023-02-28T12:50:39;5.10;99.90
4366;DHT22;2196;47.422;9.656;2023-02-28T12:53:09;4.80;99.90
4366;DHT22;2196;47.422;9.656;2023-02-28T12:55:45;4.80;99.90
4366;DHT22;2196;47.422;9.656;2023-02-28T12:58:19;4.80;99.90
4366;DHT22;2196;47.422;9.656;2023-02-28T13:01:03;4.90;99.90
4366;DHT22;2196;47.422;9.656;2023-02-28T13:06:57;4.60;99.90
4366;DHT22;2196;47.422;9.656;2023-02-28T13:09:26;4.80;99.90
4366;DHT22;2196;47.422;9.656;2023-02-28T13:11:55;4.90;99.90
4366;DHT22;2196;47.422;9.656;2023-02-28T13:14:26;4.90;99.90
4366;DHT22;2196;47.422;9.656;2023-02-28T13:16:59;4.80;99.90
4366;DHT22;2196;47.422;9.656;2023-02-28T13:19:30;4.60;99.90
4366;DHT22;2196;47.422;9.656;2023-02-28T13:21:58;4.30;99.90
4366;DHT22;2196;47.422;9.656;2023-02-28T13:24:45;4.20;99.90
4366;DHT22;2196;47.422;9.656;2023-02-28T13:27:31;4.50;99.90
4366;DHT22;2196;47.422;9.656;2023-02-28T13:30:01;4.40;99.90
4366;DHT22;2196;47.422;9.656;2023-02-28T13:32:35;4.50;99.90
4366;DHT22;2196;47.422;9.656;2023-02-28T13:38:15;4.20;99.90
4366;DHT22;2196;47.422;9.656;2023-02-28T13:40:42;4.20;99.90
4366;DHT22;2196;47.422;9.656;2023-02-28T13:43:09;4.30;99.90
4366;DHT22;2196;47.422;9.656;2023-02-28T13:45:38;4.40;99.90
4366;DHT22;2196;47.422;9.656;2023-02-28T13:48:16;4.30;99.90
4366;DHT22;2196;47.422;9.656;2023-02-28T13:50:44;4.30;99.90
4366;DHT22;2196;47.422;9.656;2023-02-28T13:53:51;4.30;99.90
4366;DHT22;2196;47.422;9.656;2023-02-28T13:56:34;4.20;99.90
4366;DHT22;2196;47.422;9.656;2023-02-28T13:59:12;4.10;99.90
4366;DHT22;2196;47.422;9.656;2023-02-28T14:01:52;3.80;99.90
4366;DHT22;2196;47.422;9.656;2023-02-28T14:04:49;3.80;99.90
4366;DHT22;2196;47.422;9.656;2023-02-28T14:07:22;3.80;99.90
4366;DHT22;2196;47.422;9.656;2023-02-28T14:09:56;3.70;99.90
4366;DHT22;2196;47.422;9.656;2023-02-28T14:15:55;3.90;99.90
4366;DHT22;2196;47.422;9.656;2023-02-28T14:18:29;4.00;99.90
4366;DHT22;2196;47.422;9.656;2023-02-28T14:21:08;4.00;99.90
4366;DHT22;2196;47.422;9.656;2023-02-28T14:27:02;3.90;99.90
4366;DHT22;2196;47.422;9.656;2023-02-28T14:32:54;3.80;99.90
4366;DHT22;2196;47.422;9.656;2023-02-28T14:35:43;3.70;99.90
4366;DHT22;2196;47.422;9.656;2023-02-28T14:38:17;3.70;99.90
4366;DHT22;2196;47.422;9.656;2023-02-28T14:40:47;3.80;99.90
4366;DHT22;2196;47.422;9.656;2023-02-28T14:43:20;3.70;99.90
4366;DHT22;2196;47.422;9.656;2023-02-28T14:45:50;3.40;99.90
4366;DHT22;2196;47.422;9.656;2023-02-28T14:48:19;3.40;99.90
4366;DHT22;2196;47.422;9.656;2023-02-28T14:50:51;3.50;99.90
4366;DHT22;2196;47.422;9.656;2023-02-28T14:53:21;3.60;99.90
4366;DHT22;2196;47.422;9.656;2023-02-28T14:55:49;3.70;99.90
4366;DHT22;2196;47.422;9.656;2023-02-28T14:58:25;3.70;99.90
4366;DHT22;2196;47.422;9.656;2023-02-28T15:00:54;3.80;99.90
4366;DHT22;2196;47.422;9.656;2023-02-28T15:03:23;3.60;99.90
4366;DHT22;2196;47.422;9.656;2023-02-28T15:05:54;3.60;99.90
4366;DHT22;2196;47.422;9.656;2023-02-28T15:08:21;3.60;99.90
4366;DHT22;2196;47.422;9.656;2023-02-28T15:10:54;3.50;99.90
4366;DHT22;2196;47.422;9.656;2023-02-28T15:13:23;3.50;99.90
4366;DHT22;2196;47.422;9.656;2023-02-28T15:15:54;3.40;99.90
4366;DHT22;2196;47.422;9.656;2023-02-28T15:18:30;3.30;99.90
4366;DHT22;2196;47.422;9.656;2023-02-28T15:21:02;3.20;99.90
4366;DHT22;2196;47.422;9.656;2023-02-28T15:23:30;3.20;99.90
4366;DHT22;2196;47.422;9.656;2023-02-28T15:25:58;3.20;99.90
4366;DHT22;2196;47.422;9.656;2023-02-28T15:28:26;3.10;99.90
4366;DHT22;2196;47.422;9.656;2023-02-28T15:30:56;3.20;99.90
4366;DHT22;2196;47.422;9.656;2023-02-28T15:33:24;3.10;99.90
4366;DHT22;2196;47.422;9.656;2023-02-28T15:35:51;3.10;99.90
4366;DHT22;2196;47.422;9.656;2023-02-28T15:38:34;3.10;99.90
4366;DHT22;2196;47.422;9.656;2023-02-28T15:41:01;3.10;99.90
4366;DHT22;2196;47.422;9.656;2023-02-28T15:43:35;3.10;99.90
4366;DHT22;2196;47.422;9.656;2023-02-28T15:46:04;3.10;99.90
4366;DHT22;2196;47.422;9.656;2023-02-28T15:48:34;3.20;99.90
4366;DHT22;2196;47.422;9.656;2023-02-28T15:51:07;3.00;99.90
4366;DHT22;2196;47.422;9.656;2023-02-28T15:53:39;3.10;99.90
4366;DHT22;2196;47.422;9.656;2023-02-28T15:56:20;3.00;99.90
4366;DHT22;2196;47.422;9.656;2023-02-28T15:58:48;3.00;99.90
4366;DHT22;2196;47.422;9.656;2023-02-28T16:01:23;3.10;99.90
4366;DHT22;2196;47.422;9.656;2023-02-28T16:03:52;3.00;99.90
4366;DHT22;2196;47.422;9.656;2023-02-28T16:06:35;2.90;99.90
4366;DHT22;2196;47.422;9.656;2023-02-28T16:09:06;2.70;99.90
4366;DHT22;2196;47.422;9.656;2023-02-28T16:11:38;2.50;99.90
4366;DHT22;2196;47.422;9.656;2023-02-28T16:14:08;2.50;99.90
4366;DHT22;2196;47.422;9.656;2023-02-28T16:16:42;2.50;99.90
4366;DHT22;2196;47.422;9.656;2023-02-28T16:19:10;2.60;99.90
4366;DHT22;2196;47.422;9.656;2023-02-28T16:21:37;2.60;99.90
4366;DHT22;2196;47.422;9.656;2023-02-28T16:24:06;2.60;99.90
4366;DHT22;2196;47.422;9.656;2023-02-28T16:26:33;2.50;99.90
4366;DHT22;2196;47.422;9.656;2023-02-28T16:29:03;2.50;99.90
4366;DHT22;2196;47.422;9.656;2023-02-28T16:31:30;2.50;99.90
4366;DHT22;2196;47.422;9.656;2023-02-28T16:33:58;2.50;99.90
4366;DHT22;2196;47.422;9.656;2023-02-28T16:36:25;2.60;99.90
4366;DHT22;2196;47.422;9.656;2023-02-28T16:38:54;2.60;99.90
4366;DHT22;2196;47.422;9.656;2023-02-28T16:41:24;2.60;99.90
4366;DHT22;2196;47.422;9.656;2023-02-28T16:43:54;2.50;99.90
4366;DHT22;2196;47.422;9.656;2023-02-28T16:46:29;2.50;99.90
4366;DHT22;2196;47.422;9.656;2023-02-28T16:48:57;2.40;99.90
4366;DHT22;2196;47.422;9.656;2023-02-28T16:51:24;2.40;99.90
4366;DHT22;2196;47.422;9.656;2023-02-28T16:53:51;2.40;99.90
4366;DHT22;2196;47.422;9.656;2023-02-28T16:56:19;2.40;99.90
4366;DHT22;2196;47.422;9.656;2023-02-28T16:58:49;2.50;99.90
4366;DHT22;2196;47.422;9.656;2023-02-28T17:01:17;2.40;99.90
4366;DHT22;2196;47.422;9.656;2023-02-28T17:03:47;2.40;99.90
4366;DHT22;2196;47.422;9.656;2023-02-28T17:06:19;2.30;99.90
4366;DHT22;2196;47.422;9.656;2023-02-28T17:08:48;2.40;99.90
4366;DHT22;2196;47.422;9.656;2023-02-28T17:11:15;2.40;99.90
4366;DHT22;2196;47.422;9.656;2023-02-28T17:13:42;2.40;99.90
4366;DHT22;2196;47.422;9.656;2023-02-28T17:16:17;2.40;99.90